Airfield :
LOGIN :

Register | Disclaimer

   EN    FR    IT 

 










Legend :    VFR   Marginal VFR   IFR   Intensive IFR   Very Intensive IFR
Visi :
Ceiling :
>= 8 km
>= 3000ft
5 to 8 km
1000 to 3000 ft
1500m to 5 km
500 to 1000 ft
800 to 1500m
200 to 500 ft
< 800m
< 200 ft
Symbols :   Thunderstorms  Fog  Heavy snow  Heavy precipitations  Wind > 20 kt
SIGMETs :     Misc.  Thunderstorms  Icing  Turbulence  Mountain Waves  Volcanic Ashes







- Airport Elevation : 1860 ft
- IATA code : GRX


LEGR - Granada

CURRENT METAR :
  • 170900Z 00000KT CAVOK 05/01 Q1024

EXPIRED METARs :
  • 170830Z VRB01KT CAVOK 04/00 Q1024
  • 170800Z 16002KT CAVOK 02/00 Q1023
  • 170730Z 20003KT CAVOK M00/M02 Q1023
  • 170700Z 28002KT CAVOK M00/M02 Q1023
  • 170630Z 00000KT CAVOK 01/M01 Q1023

TAF TAF LEGR
Valid from the 17 at 09:00 until the 18 at 09:00 UTC


170800Z 1709/1809 VRB03KT CAVOK TX19/1715Z TN01/1807Z
TEMPO 1715/1719 18010KT
No reported NOTAMs for that airfield.
2 SIGMETs reported for the Madrid FIR (LECM) :
 
Severe mountain waves
LECM SIGMET 3 VALID 170900/171200 LEVA
LECM MADRID FIR/UIR SEV MTW OBS AT 0845Z WI N4344 W00607 - N4249 W00607 - N4245 W00322 - N4341 W00322 - N4344 W00607 SFC/FL300 STNR NC=
Severe mountain waves
LECM SIGMET 2 VALID 170630/170900 LEVA
LECM MADRID FIR/UIR SEV MTW OBS AT 0629Z WI N4344 W00607 - N4249 W00607 - N4245 W00322 - N4341 W00322 - N4344 W00607 SFC/FL300 STNR NC=



MET'MAP, your aeronautical weather chart ! - Copyright ORBIFLY December 2007 - Disclaimer

ORBIFLY MET'MAP TEAM :

Programming & Development : Alexandra Zaïnal
Concept & Development : Baudouin d'Aumeries
Co-Development & Prog : Marc-Olivier Méhu
Technical & hardware support : Manuel Goepfert

Contact : metmap@orbifly.com




SOURCES & CREDITS :

   NOAA